sensor_id;sensor_type;location;lat;lon;timestamp;pressure;altitude;pressure_sealevel;temperature;humidity
29879;BME280;16752;53.364;-1.488;2024-03-08T00:02:15;100597.06;;;14.33;40.50
29879;BME280;16752;53.364;-1.488;2024-03-08T00:40:43;100551.78;;;14.39;41.36
29879;BME280;16752;53.364;-1.488;2024-03-08T00:46:53;100551.44;;;14.55;40.61
29879;BME280;16752;53.364;-1.488;2024-03-08T00:53:15;100542.78;;;14.53;40.44
29879;BME280;16752;53.364;-1.488;2024-03-08T00:56:00;100534.28;;;14.49;41.48
29879;BME280;16752;53.364;-1.488;2024-03-08T00:58:47;100532.88;;;14.56;41.37
29879;BME280;16752;53.364;-1.488;2024-03-08T01:01:37;100531.91;;;14.57;40.71
29879;BME280;16752;53.364;-1.488;2024-03-08T01:07:37;100517.06;;;14.45;41.47
29879;BME280;16752;53.364;-1.488;2024-03-08T01:10:24;100516.94;;;14.47;41.42
29879;BME280;16752;53.364;-1.488;2024-03-08T01:13:08;100506.84;;;14.41;41.79
29879;BME280;16752;53.364;-1.488;2024-03-08T01:16:00;100504.81;;;14.55;41.14
29879;BME280;16752;53.364;-1.488;2024-03-08T01:18:44;100498.72;;;14.44;42.16
29879;BME280;16752;53.364;-1.488;2024-03-08T01:21:28;100493.75;;;14.73;41.43
29879;BME280;16752;53.364;-1.488;2024-03-08T01:24:12;100491.22;;;14.71;41.63
29879;BME280;16752;53.364;-1.488;2024-03-08T01:26:56;100475.97;;;14.86;41.48
29879;BME280;16752;53.364;-1.488;2024-03-08T01:29:40;100474.38;;;14.94;41.19
29879;BME280;16752;53.364;-1.488;2024-03-08T01:32:24;100473.91;;;14.89;41.34
29879;BME280;16752;53.364;-1.488;2024-03-08T01:35:09;100470.56;;;14.55;42.66
29879;BME280;16752;53.364;-1.488;2024-03-08T01:37:53;100472.47;;;14.31;43.26
29879;BME280;16752;53.364;-1.488;2024-03-08T01:40:40;100469.28;;;14.71;42.37
29879;BME280;16752;53.364;-1.488;2024-03-08T01:43:28;100462.72;;;14.76;42.23
29879;BME280;16752;53.364;-1.488;2024-03-08T01:46:13;100460.13;;;14.86;42.05
29879;BME280;16752;53.364;-1.488;2024-03-08T01:49:05;100463.09;;;14.60;42.73
29879;BME280;16752;53.364;-1.488;2024-03-08T01:51:56;100452.81;;;14.89;42.09
29879;BME280;16752;53.364;-1.488;2024-03-08T01:54:40;100446.53;;;14.70;42.64
29879;BME280;16752;53.364;-1.488;2024-03-08T01:57:24;100444.06;;;14.89;42.35
29879;BME280;16752;53.364;-1.488;2024-03-08T02:00:08;100442.22;;;14.68;43.13
29879;BME280;16752;53.364;-1.488;2024-03-08T02:02:56;100443.28;;;14.77;42.76
29879;BME280;16752;53.364;-1.488;2024-03-08T02:05:41;100436.41;;;14.86;42.68
29879;BME280;16752;53.364;-1.488;2024-03-08T02:08:25;100434.06;;;14.72;43.11
29879;BME280;16752;53.364;-1.488;2024-03-08T02:11:10;100426.69;;;14.86;42.89
29879;BME280;16752;53.364;-1.488;2024-03-08T02:13:54;100421.00;;;15.02;42.54
29879;BME280;16752;53.364;-1.488;2024-03-08T02:16:39;100414.16;;;15.00;42.45
29879;BME280;16752;53.364;-1.488;2024-03-08T02:19:23;100413.13;;;14.91;42.96
29879;BME280;16752;53.364;-1.488;2024-03-08T02:22:07;100409.91;;;15.08;42.55
29879;BME280;16752;53.364;-1.488;2024-03-08T02:24:51;100406.97;;;15.22;42.15
29879;BME280;16752;53.364;-1.488;2024-03-08T02:27:35;100402.38;;;15.04;42.89
29879;BME280;16752;53.364;-1.488;2024-03-08T02:30:19;100392.94;;;15.22;42.34
29879;BME280;16752;53.364;-1.488;2024-03-08T02:33:03;100388.81;;;15.08;42.46
29879;BME280;16752;53.364;-1.488;2024-03-08T02:35:48;100386.47;;;14.94;43.18
29879;BME280;16752;53.364;-1.488;2024-03-08T02:38:32;100387.66;;;15.01;42.90
29879;BME280;16752;53.364;-1.488;2024-03-08T02:41:16;100382.03;;;15.15;42.50
29879;BME280;16752;53.364;-1.488;2024-03-08T02:44:00;100376.31;;;15.31;42.26
29879;BME280;16752;53.364;-1.488;2024-03-08T02:46:44;100376.63;;;15.17;42.62
29879;BME280;16752;53.364;-1.488;2024-03-08T02:49:28;100379.41;;;15.15;42.51
29879;BME280;16752;53.364;-1.488;2024-03-08T02:52:12;100369.75;;;15.25;42.43
29879;BME280;16752;53.364;-1.488;2024-03-08T02:54:56;100359.91;;;14.86;43.45
29879;BME280;16752;53.364;-1.488;2024-03-08T02:57:40;100353.78;;;15.27;42.36
29879;BME280;16752;53.364;-1.488;2024-03-08T03:00:25;100352.41;;;15.02;43.07
29879;BME280;16752;53.364;-1.488;2024-03-08T03:03:10;100354.44;;;15.19;42.56
29879;BME280;16752;53.364;-1.488;2024-03-08T03:05:55;100349.03;;;14.58;43.81
29879;BME280;16752;53.364;-1.488;2024-03-08T03:08:42;100348.72;;;14.93;43.30
29879;BME280;16752;53.364;-1.488;2024-03-08T03:11:28;100347.88;;;14.93;43.38
29879;BME280;16752;53.364;-1.488;2024-03-08T03:14:12;100346.44;;;15.31;42.59
29879;BME280;16752;53.364;-1.488;2024-03-08T03:16:56;100341.00;;;15.22;42.57
29879;BME280;16752;53.364;-1.488;2024-03-08T03:19:40;100334.81;;;15.12;43.05
29879;BME280;16752;53.364;-1.488;2024-03-08T03:22:24;100332.13;;;15.03;43.29
29879;BME280;16752;53.364;-1.488;2024-03-08T03:25:09;100324.47;;;15.00;43.32
29879;BME280;16752;53.364;-1.488;2024-03-08T03:27:53;100323.41;;;15.12;43.02
29879;BME280;16752;53.364;-1.488;2024-03-08T03:30:40;100297.44;;;14.86;43.27
29879;BME280;16752;53.364;-1.488;2024-03-08T03:33:25;100314.88;;;14.98;43.28
29879;BME280;16752;53.364;-1.488;2024-03-08T03:36:09;100324.00;;;14.94;43.14
29879;BME280;16752;53.364;-1.488;2024-03-08T03:38:53;100315.47;;;15.02;43.08
29879;BME280;16752;53.364;-1.488;2024-03-08T03:41:48;100315.38;;;15.13;43.06
29879;BME280;16752;53.364;-1.488;2024-03-08T03:44:37;100314.69;;;14.70;43.86
29879;BME280;16752;53.364;-1.488;2024-03-08T03:47:21;100311.72;;;15.05;42.93
29879;BME280;16752;53.364;-1.488;2024-03-08T03:50:05;100300.47;;;15.03;43.29
29879;BME280;16752;53.364;-1.488;2024-03-08T03:52:49;100306.50;;;14.93;43.40
29879;BME280;16752;53.364;-1.488;2024-03-08T03:55:34;100307.88;;;14.67;44.11
29879;BME280;16752;53.364;-1.488;2024-03-08T03:58:18;100293.25;;;15.05;43.48
29879;BME280;16752;53.364;-1.488;2024-03-08T04:01:06;100295.09;;;15.14;42.98
29879;BME280;16752;53.364;-1.488;2024-03-08T04:03:50;100291.06;;;15.10;42.95
29879;BME280;16752;53.364;-1.488;2024-03-08T04:06:34;100287.69;;;14.98;43.12
29879;BME280;16752;53.364;-1.488;2024-03-08T04:09:18;100281.06;;;14.83;43.47
29879;BME280;16752;53.364;-1.488;2024-03-08T04:12:02;100285.78;;;15.10;42.85
29879;BME280;16752;53.364;-1.488;2024-03-08T04:14:46;100281.94;;;14.93;43.54
29879;BME280;16752;53.364;-1.488;2024-03-08T04:17:30;100273.31;;;14.91;43.37
29879;BME280;16752;53.364;-1.488;2024-03-08T04:20:14;100275.53;;;15.16;42.92
29879;BME280;16752;53.364;-1.488;2024-03-08T04:22:59;100279.19;;;15.25;42.49
29879;BME280;16752;53.364;-1.488;2024-03-08T04:25:43;100268.25;;;14.99;43.24
29879;BME280;16752;53.364;-1.488;2024-03-08T04:28:27;100272.63;;;14.89;43.41
29879;BME280;16752;53.364;-1.488;2024-03-08T04:31:11;100265.13;;;14.94;43.55
29879;BME280;16752;53.364;-1.488;2024-03-08T04:33:55;100264.53;;;15.11;43.02
29879;BME280;16752;53.364;-1.488;2024-03-08T04:36:39;100252.84;;;15.04;43.41
29879;BME280;16752;53.364;-1.488;2024-03-08T04:39:23;100261.34;;;15.17;43.01
29879;BME280;16752;53.364;-1.488;2024-03-08T04:42:07;100257.66;;;15.29;42.69
29879;BME280;16752;53.364;-1.488;2024-03-08T04:44:53;100258.38;;;15.32;42.79
29879;BME280;16752;53.364;-1.488;2024-03-08T04:47:37;100254.13;;;15.10;43.42
29879;BME280;16752;53.364;-1.488;2024-03-08T04:50:21;100253.53;;;15.06;43.26
29879;BME280;16752;53.364;-1.488;2024-03-08T04:53:05;100249.50;;;15.02;43.32
29879;BME280;16752;53.364;-1.488;2024-03-08T04:55:51;100250.91;;;15.06;43.20
29879;BME280;16752;53.364;-1.488;2024-03-08T04:58:35;100251.41;;;15.31;42.86
29879;BME280;16752;53.364;-1.488;2024-03-08T05:01:19;100238.66;;;15.36;42.49
29879;BME280;16752;53.364;-1.488;2024-03-08T05:04:04;100242.56;;;15.41;42.54
29879;BME280;16752;53.364;-1.488;2024-03-08T05:06:48;100237.38;;;15.20;43.11
29879;BME280;16752;53.364;-1.488;2024-03-08T05:09:32;100244.25;;;15.12;43.29
29879;BME280;16752;53.364;-1.488;2024-03-08T05:12:18;100235.59;;;15.31;42.78
29879;BME280;16752;53.364;-1.488;2024-03-08T05:15:02;100235.63;;;15.50;42.30
29879;BME280;16752;53.364;-1.488;2024-03-08T05:17:46;100237.53;;;15.38;42.42
29879;BME280;16752;53.364;-1.488;2024-03-08T05:20:30;100230.22;;;15.11;43.24
29879;BME280;16752;53.364;-1.488;2024-03-08T05:23:14;100233.22;;;15.37;42.62
29879;BME280;16752;53.364;-1.488;2024-03-08T05:25:59;100190.22;;;15.06;42.63
29879;BME280;16752;53.364;-1.488;2024-03-08T05:28:43;100229.53;;;15.09;43.08
29879;BME280;16752;53.364;-1.488;2024-03-08T05:31:27;100223.00;;;15.13;43.06
29879;BME280;16752;53.364;-1.488;2024-03-08T05:34:12;100229.19;;;15.23;42.92
29879;BME280;16752;53.364;-1.488;2024-03-08T05:36:58;100218.28;;;15.07;43.04
29879;BME280;16752;53.364;-1.488;2024-03-08T05:39:42;100214.03;;;15.25;42.87
29879;BME280;16752;53.364;-1.488;2024-03-08T05:42:27;100208.69;;;15.06;43.11
29879;BME280;16752;53.364;-1.488;2024-03-08T05:45:12;100213.34;;;15.23;42.79
29879;BME280;16752;53.364;-1.488;2024-03-08T05:47:56;100211.34;;;15.16;42.81
29879;BME280;16752;53.364;-1.488;2024-03-08T05:50:40;100211.69;;;15.22;42.58
29879;BME280;16752;53.364;-1.488;2024-03-08T05:53:24;100211.88;;;15.00;43.25
29879;BME280;16752;53.364;-1.488;2024-03-08T05:56:08;100204.94;;;14.99;43.34
29879;BME280;16752;53.364;-1.488;2024-03-08T05:58:52;100210.53;;;15.15;43.20
29879;BME280;16752;53.364;-1.488;2024-03-08T06:01:36;100206.25;;;15.24;42.96
29879;BME280;16752;53.364;-1.488;2024-03-08T06:04:21;100204.75;;;15.31;42.59
29879;BME280;16752;53.364;-1.488;2024-03-08T06:07:05;100195.53;;;14.76;43.87
29879;BME280;16752;53.364;-1.488;2024-03-08T06:09:49;100193.91;;;14.94;43.19
29879;BME280;16752;53.364;-1.488;2024-03-08T06:12:33;100186.31;;;15.01;43.30
29879;BME280;16752;53.364;-1.488;2024-03-08T06:15:23;100184.41;;;15.12;42.88
29879;BME280;16752;53.364;-1.488;2024-03-08T06:18:07;100188.34;;;14.87;43.64
29879;BME280;16752;53.364;-1.488;2024-03-08T06:20:54;100186.50;;;15.09;42.90
29879;BME280;16752;53.364;-1.488;2024-03-08T06:23:39;100189.16;;;14.78;43.39
29879;BME280;16752;53.364;-1.488;2024-03-08T06:26:26;100181.31;;;14.97;42.96
29879;BME280;16752;53.364;-1.488;2024-03-08T06:29:12;100191.47;;;14.72;43.32
29879;BME280;16752;53.364;-1.488;2024-03-08T06:31:56;100182.03;;;15.00;43.20
29879;BME280;16752;53.364;-1.488;2024-03-08T06:34:41;100180.78;;;15.04;42.84
29879;BME280;16752;53.364;-1.488;2024-03-08T06:37:25;100184.84;;;14.77;43.83
29879;BME280;16752;53.364;-1.488;2024-03-08T06:40:09;100181.06;;;15.10;42.97
29879;BME280;16752;53.364;-1.488;2024-03-08T06:42:57;100177.75;;;14.47;44.35
29879;BME280;16752;53.364;-1.488;2024-03-08T06:45:41;100180.50;;;14.97;43.29
29879;BME280;16752;53.364;-1.488;2024-03-08T06:48:26;100176.31;;;14.64;43.68
29879;BME280;16752;53.364;-1.488;2024-03-08T06:51:10;100181.28;;;14.88;43.45
29879;BME280;16752;53.364;-1.488;2024-03-08T06:53:54;100178.06;;;13.80;45.62
29879;BME280;16752;53.364;-1.488;2024-03-08T06:56:38;100170.19;;;14.94;43.09
29879;BME280;16752;53.364;-1.488;2024-03-08T06:59:22;100174.63;;;14.93;42.80
29879;BME280;16752;53.364;-1.488;2024-03-08T07:02:06;100171.53;;;14.79;43.32
29879;BME280;16752;53.364;-1.488;2024-03-08T07:04:53;100156.16;;;14.12;44.58
29879;BME280;16752;53.364;-1.488;2024-03-08T07:07:37;100172.13;;;14.92;43.20
29879;BME280;16752;53.364;-1.488;2024-03-08T07:10:39;100170.63;;;14.99;43.07
29879;BME280;16752;53.364;-1.488;2024-03-08T07:13:25;100165.25;;;15.10;42.72
29879;BME280;16752;53.364;-1.488;2024-03-08T07:16:09;100163.25;;;14.93;43.22
29879;BME280;16752;53.364;-1.488;2024-03-08T07:18:53;100154.81;;;14.99;42.85
29879;BME280;16752;53.364;-1.488;2024-03-08T07:21:37;100161.28;;;14.95;43.13
29879;BME280;16752;53.364;-1.488;2024-03-08T07:28:00;100155.28;;;14.53;43.54
29879;BME280;16752;53.364;-1.488;2024-03-08T07:45:08;100142.00;;;14.94;43.02
29879;BME280;16752;53.364;-1.488;2024-03-08T07:48:16;100144.13;;;15.10;42.41
29879;BME280;16752;53.364;-1.488;2024-03-08T07:51:06;100140.88;;;14.87;43.10
29879;BME280;16752;53.364;-1.488;2024-03-08T08:04:05;100128.50;;;14.78;43.14
29879;BME280;16752;53.364;-1.488;2024-03-08T08:07:30;100126.75;;;14.98;42.64
29879;BME280;16752;53.364;-1.488;2024-03-08T10:09:16;99981.66;;;15.66;38.99
29879;BME280;16752;53.364;-1.488;2024-03-08T11:02:14;99930.97;;;15.89;37.85
29879;BME280;16752;53.364;-1.488;2024-03-08T11:05:03;99925.66;;;15.62;38.08
29879;BME280;16752;53.364;-1.488;2024-03-08T11:11:34;99920.78;;;15.67;38.07
29879;BME280;16752;53.364;-1.488;2024-03-08T11:42:48;99899.22;;;15.99;36.08
29879;BME280;16752;53.364;-1.488;2024-03-08T11:49:19;99887.97;;;15.60;37.36
29879;BME280;16752;53.364;-1.488;2024-03-08T11:52:11;99890.75;;;15.96;36.19
29879;BME280;16752;53.364;-1.488;2024-03-08T11:58:30;99892.69;;;16.21;36.62
29879;BME280;16752;53.364;-1.488;2024-03-08T12:04:45;99865.09;;;16.51;34.78
29879;BME280;16752;53.364;-1.488;2024-03-08T12:08:05;99866.53;;;16.28;35.41
29879;BME280;16752;53.364;-1.488;2024-03-08T12:14:20;99850.69;;;16.81;34.63
29879;BME280;16752;53.364;-1.488;2024-03-08T12:17:07;99846.88;;;17.27;33.88
29879;BME280;16752;53.364;-1.488;2024-03-08T12:20:10;99842.41;;;17.28;33.26
29879;BME280;16752;53.364;-1.488;2024-03-08T12:23:13;99835.34;;;17.36;34.18
29879;BME280;16752;53.364;-1.488;2024-03-08T12:29:31;99827.47;;;17.79;34.63
29879;BME280;16752;53.364;-1.488;2024-03-08T12:46:24;99803.06;;;18.25;33.08
29879;BME280;16752;53.364;-1.488;2024-03-08T12:57:07;99785.59;;;17.56;34.41
29879;BME280;16752;53.364;-1.488;2024-03-08T14:20:02;99672.94;;;16.77;35.60
29879;BME280;16752;53.364;-1.488;2024-03-08T14:23:08;99674.63;;;17.21;35.34
29879;BME280;16752;53.364;-1.488;2024-03-08T14:25:51;99666.09;;;17.51;34.40
29879;BME280;16752;53.364;-1.488;2024-03-08T14:28:41;99654.75;;;17.17;35.34
29879;BME280;16752;53.364;-1.488;2024-03-08T14:38:25;99645.44;;;18.36;33.66
29879;BME280;16752;53.364;-1.488;2024-03-08T14:41:21;99632.38;;;18.10;33.00
29879;BME280;16752;53.364;-1.488;2024-03-08T14:44:19;99637.44;;;18.60;32.41
29879;BME280;16752;53.364;-1.488;2024-03-08T14:47:09;99638.69;;;17.85;32.71
29879;BME280;16752;53.364;-1.488;2024-03-08T14:49:58;99619.91;;;17.54;33.78
29879;BME280;16752;53.364;-1.488;2024-03-08T14:52:42;99622.78;;;17.02;34.93
29879;BME280;16752;53.364;-1.488;2024-03-08T14:55:29;99626.19;;;17.53;33.31
29879;BME280;16752;53.364;-1.488;2024-03-08T14:58:14;99612.72;;;17.14;34.89
29879;BME280;16752;53.364;-1.488;2024-03-08T15:00:58;99618.38;;;17.19;34.22
29879;BME280;16752;53.364;-1.488;2024-03-08T15:03:43;99614.19;;;17.08;33.64
29879;BME280;16752;53.364;-1.488;2024-03-08T15:17:06;99591.06;;;17.26;35.20
29879;BME280;16752;53.364;-1.488;2024-03-08T15:20:04;99588.81;;;17.64;33.22
29879;BME280;16752;53.364;-1.488;2024-03-08T15:29:33;99576.50;;;15.86;35.73
29879;BME280;16752;53.364;-1.488;2024-03-08T15:32:19;99582.88;;;16.61;35.29
29879;BME280;16752;53.364;-1.488;2024-03-08T15:35:10;99571.88;;;17.16;34.37
29879;BME280;16752;53.364;-1.488;2024-03-08T15:37:57;99577.63;;;17.11;35.07
29879;BME280;16752;53.364;-1.488;2024-03-08T15:40:42;99569.78;;;16.86;34.69
29879;BME280;16752;53.364;-1.488;2024-03-08T15:43:26;99573.31;;;16.94;35.44
29879;BME280;16752;53.364;-1.488;2024-03-08T15:52:55;99564.34;;;16.53;35.61
29879;BME280;16752;53.364;-1.488;2024-03-08T15:55:47;99570.66;;;16.94;34.50
29879;BME280;16752;53.364;-1.488;2024-03-08T15:58:32;99557.94;;;16.98;35.11
29879;BME280;16752;53.364;-1.488;2024-03-08T16:04:36;99553.03;;;16.69;34.45
29879;BME280;16752;53.364;-1.488;2024-03-08T16:07:21;99557.56;;;16.85;34.54
29879;BME280;16752;53.364;-1.488;2024-03-08T16:10:06;99558.75;;;16.98;33.99
29879;BME280;16752;53.364;-1.488;2024-03-08T16:12:51;99538.59;;;16.97;33.75
29879;BME280;16752;53.364;-1.488;2024-03-08T16:21:37;99533.16;;;16.65;35.02
29879;BME280;16752;53.364;-1.488;2024-03-08T16:24:24;99535.44;;;16.94;34.58
29879;BME280;16752;53.364;-1.488;2024-03-08T16:27:08;99541.47;;;16.70;34.65
29879;BME280;16752;53.364;-1.488;2024-03-08T16:29:54;99529.50;;;16.58;34.39
29879;BME280;16752;53.364;-1.488;2024-03-08T16:32:42;99529.59;;;16.82;34.03
29879;BME280;16752;53.364;-1.488;2024-03-08T16:35:27;99533.13;;;16.23;35.66
29879;BME280;16752;53.364;-1.488;2024-03-08T16:38:15;99532.78;;;16.52;34.49
29879;BME280;16752;53.364;-1.488;2024-03-08T16:41:00;99529.50;;;16.92;34.20
29879;BME280;16752;53.364;-1.488;2024-03-08T16:43:44;99527.28;;;16.79;34.86
29879;BME280;16752;53.364;-1.488;2024-03-08T16:46:28;99527.66;;;16.16;35.78
29879;BME280;16752;53.364;-1.488;2024-03-08T16:49:21;99524.88;;;15.92;36.11
29879;BME280;16752;53.364;-1.488;2024-03-08T16:52:05;99522.19;;;15.83;36.44
29879;BME280;16752;53.364;-1.488;2024-03-08T16:54:49;99523.09;;;15.39;37.46
29879;BME280;16752;53.364;-1.488;2024-03-08T16:57:35;99517.75;;;16.18;35.72
29879;BME280;16752;53.364;-1.488;2024-03-08T17:00:22;99532.09;;;15.46;37.31
29879;BME280;16752;53.364;-1.488;2024-03-08T17:03:16;99531.13;;;15.91;36.21
29879;BME280;16752;53.364;-1.488;2024-03-08T17:06:00;99526.34;;;15.33;37.44
29879;BME280;16752;53.364;-1.488;2024-03-08T17:08:46;99534.94;;;15.70;36.69
29879;BME280;16752;53.364;-1.488;2024-03-08T17:11:39;99529.16;;;15.67;36.88
29879;BME280;16752;53.364;-1.488;2024-03-08T18:49:29;99528.91;;;14.24;41.17
29879;BME280;16752;53.364;-1.488;2024-03-08T18:52:13;99526.34;;;14.42;40.25
29879;BME280;16752;53.364;-1.488;2024-03-08T18:55:07;99534.66;;;14.75;40.02
29879;BME280;16752;53.364;-1.488;2024-03-08T18:58:37;99522.94;;;13.85;41.71
29879;BME280;16752;53.364;-1.488;2024-03-08T19:01:22;99520.78;;;14.55;40.78
29879;BME280;16752;53.364;-1.488;2024-03-08T19:04:09;99510.84;;;14.29;40.77
29879;BME280;16752;53.364;-1.488;2024-03-08T19:06:57;99513.16;;;14.05;41.25
29879;BME280;16752;53.364;-1.488;2024-03-08T19:09:41;99519.56;;;14.40;40.84
29879;BME280;16752;53.364;-1.488;2024-03-08T19:12:27;99512.72;;;14.19;41.15
29879;BME280;16752;53.364;-1.488;2024-03-08T19:15:15;99509.13;;;14.57;40.43
29879;BME280;16752;53.364;-1.488;2024-03-08T19:18:03;99517.00;;;14.20;40.88
29879;BME280;16752;53.364;-1.488;2024-03-08T19:20:53;99507.13;;;14.32;41.11
29879;BME280;16752;53.364;-1.488;2024-03-08T19:23:40;99508.03;;;14.50;40.58
29879;BME280;16752;53.364;-1.488;2024-03-08T19:26:26;99499.59;;;14.37;40.66
29879;BME280;16752;53.364;-1.488;2024-03-08T19:29:10;99496.41;;;14.43;40.45
29879;BME280;16752;53.364;-1.488;2024-03-08T19:31:55;99500.09;;;14.23;40.74
29879;BME280;16752;53.364;-1.488;2024-03-08T19:34:42;99504.06;;;14.64;40.02
29879;BME280;16752;53.364;-1.488;2024-03-08T19:37:26;99496.22;;;14.54;40.25
29879;BME280;16752;53.364;-1.488;2024-03-08T19:40:14;99495.41;;;14.54;40.73
29879;BME280;16752;53.364;-1.488;2024-03-08T19:43:07;99491.34;;;14.59;40.24
29879;BME280;16752;53.364;-1.488;2024-03-08T19:45:56;99491.94;;;14.53;40.37
29879;BME280;16752;53.364;-1.488;2024-03-08T19:48:43;99489.69;;;14.21;41.22
29879;BME280;16752;53.364;-1.488;2024-03-08T19:51:27;99491.00;;;14.45;40.50
29879;BME280;16752;53.364;-1.488;2024-03-08T19:54:13;99491.94;;;14.53;40.48
29879;BME280;16752;53.364;-1.488;2024-03-08T19:56:59;99489.84;;;14.20;40.85
29879;BME280;16752;53.364;-1.488;2024-03-08T19:59:50;99484.13;;;14.61;39.95
29879;BME280;16752;53.364;-1.488;2024-03-08T20:02:35;99479.97;;;14.59;40.28
29879;BME280;16752;53.364;-1.488;2024-03-08T20:05:20;99488.59;;;14.51;40.20
29879;BME280;16752;53.364;-1.488;2024-03-08T20:08:05;99474.28;;;14.26;40.94
29879;BME280;16752;53.364;-1.488;2024-03-08T20:10:51;99481.06;;;14.29;41.18
29879;BME280;16752;53.364;-1.488;2024-03-08T20:13:36;99480.34;;;14.36;40.92
29879;BME280;16752;53.364;-1.488;2024-03-08T20:16:27;99473.47;;;13.79;41.87
29879;BME280;16752;53.364;-1.488;2024-03-08T20:19:14;99463.19;;;14.60;40.30
29879;BME280;16752;53.364;-1.488;2024-03-08T20:21:58;99464.00;;;14.60;40.26
29879;BME280;16752;53.364;-1.488;2024-03-08T20:24:44;99461.41;;;14.78;39.91
29879;BME280;16752;53.364;-1.488;2024-03-08T20:27:31;99460.53;;;14.60;40.35
29879;BME280;16752;53.364;-1.488;2024-03-08T20:30:26;99462.88;;;14.35;40.96
29879;BME280;16752;53.364;-1.488;2024-03-08T20:33:13;99454.34;;;14.51;40.73
29879;BME280;16752;53.364;-1.488;2024-03-08T20:36:06;99449.25;;;14.67;40.31
29879;BME280;16752;53.364;-1.488;2024-03-08T20:38:54;99453.31;;;14.62;40.35
29879;BME280;16752;53.364;-1.488;2024-03-08T20:41:39;99441.88;;;14.53;40.62
29879;BME280;16752;53.364;-1.488;2024-03-08T20:44:26;99430.13;;;14.38;41.04
29879;BME280;16752;53.364;-1.488;2024-03-08T20:47:13;99428.81;;;14.70;40.30
29879;BME280;16752;53.364;-1.488;2024-03-08T20:50:01;99424.56;;;14.41;40.78
29879;BME280;16752;53.364;-1.488;2024-03-08T20:52:46;99420.03;;;14.61;40.84
29879;BME280;16752;53.364;-1.488;2024-03-08T20:55:41;99428.22;;;14.58;40.92
29879;BME280;16752;53.364;-1.488;2024-03-08T20:58:31;99421.97;;;14.59;40.94
29879;BME280;16752;53.364;-1.488;2024-03-08T21:01:18;99411.22;;;14.43;41.35
29879;BME280;16752;53.364;-1.488;2024-03-08T21:07:34;99403.38;;;14.78;40.71
29879;BME280;16752;53.364;-1.488;2024-03-08T21:10:23;99402.09;;;14.64;41.15
29879;BME280;16752;53.364;-1.488;2024-03-08T21:13:12;99407.59;;;14.89;40.38
29879;BME280;16752;53.364;-1.488;2024-03-08T21:19:16;99390.25;;;14.68;40.75
29879;BME280;16752;53.364;-1.488;2024-03-08T21:22:00;99389.44;;;14.86;40.90
29879;BME280;16752;53.364;-1.488;2024-03-08T21:24:44;99384.56;;;14.55;41.12
29879;BME280;16752;53.364;-1.488;2024-03-08T21:33:50;99372.25;;;14.46;41.75
29879;BME280;16752;53.364;-1.488;2024-03-08T21:39:44;99354.84;;;14.89;41.30
29879;BME280;16752;53.364;-1.488;2024-03-08T21:42:56;99349.00;;;14.59;41.44
29879;BME280;16752;53.364;-1.488;2024-03-08T21:45:42;99356.97;;;14.67;41.17
29879;BME280;16752;53.364;-1.488;2024-03-08T21:48:33;99355.47;;;14.83;41.05
29879;BME280;16752;53.364;-1.488;2024-03-08T21:51:18;99345.28;;;13.89;42.77
29879;BME280;16752;53.364;-1.488;2024-03-08T21:54:02;99346.91;;;14.63;41.38
29879;BME280;16752;53.364;-1.488;2024-03-08T21:56:47;99349.75;;;14.70;41.55
29879;BME280;16752;53.364;-1.488;2024-03-08T21:59:31;99342.38;;;14.55;41.90
29879;BME280;16752;53.364;-1.488;2024-03-08T22:02:18;99336.75;;;14.23;42.36
29879;BME280;16752;53.364;-1.488;2024-03-08T22:05:03;99336.75;;;14.94;40.81
29879;BME280;16752;53.364;-1.488;2024-03-08T22:07:48;99344.41;;;14.79;41.33
29879;BME280;16752;53.364;-1.488;2024-03-08T22:10:33;99340.94;;;14.79;41.63
29879;BME280;16752;53.364;-1.488;2024-03-08T22:13:17;99344.59;;;15.04;40.90
29879;BME280;16752;53.364;-1.488;2024-03-08T22:16:02;99342.06;;;14.76;41.89
29879;BME280;16752;53.364;-1.488;2024-03-08T22:18:47;99338.13;;;14.98;41.20
29879;BME280;16752;53.364;-1.488;2024-03-08T22:21:31;99331.97;;;14.36;42.45
29879;BME280;16752;53.364;-1.488;2024-03-08T22:24:16;99325.97;;;14.61;42.19
29879;BME280;16752;53.364;-1.488;2024-03-08T22:27:00;99331.03;;;14.55;42.38
29879;BME280;16752;53.364;-1.488;2024-03-08T22:29:44;99321.47;;;14.54;42.30
29879;BME280;16752;53.364;-1.488;2024-03-08T22:32:28;99325.53;;;14.92;41.60
29879;BME280;16752;53.364;-1.488;2024-03-08T22:35:13;99306.34;;;14.82;41.56
29879;BME280;16752;53.364;-1.488;2024-03-08T22:37:58;99309.44;;;14.42;42.54
29879;BME280;16752;53.364;-1.488;2024-03-08T22:40:42;99309.03;;;14.90;41.41
29879;BME280;16752;53.364;-1.488;2024-03-08T22:43:26;99314.81;;;14.67;42.00
29879;BME280;16752;53.364;-1.488;2024-03-08T22:46:12;99308.22;;;14.89;41.79
29879;BME280;16752;53.364;-1.488;2024-03-08T22:52:29;99291.69;;;14.61;42.05
29879;BME280;16752;53.364;-1.488;2024-03-08T23:19:47;99239.75;;;14.54;42.65
